Time;durP1;ratioP1;P1;durP2;ratioP2;P2;SDS_P1;SDS_P2;PMS_P1;PMS_P2;Temp;Humidity;BMP_temperature;BMP_pressure;BME280_temperature;BME280_humidity;BME280_pressure;Samples;Min_cycle;Max_cycle;Signal;HPM_P1;HPM_P2
2022/12/20 00:00:10;;;;;;;;;14.00;10.33;;;;;;;;5078857;28;45424;-66
2022/12/20 00:02:35;;;;;;;;;8.75;7.75;;;;;;;;5078276;27;45805;-66
2022/12/20 00:05:00;;;;;;;;;7.50;7.50;;;;;;;;5070016;27;45587;-65
2022/12/20 00:07:26;;;;;;;;;13.00;8.33;;;;;;;;5075337;27;46228;-64
2022/12/20 00:09:51;;;;;;;;;9.00;9.00;;;;;;;;5062998;27;46737;-63
2022/12/20 00:12:16;;;;;;;;;9.33;9.33;;;;;;;;5077552;27;45656;-64
2022/12/20 00:14:41;;;;;;;;;8.33;7.00;;;;;;;;5079666;28;45388;-64
2022/12/20 00:17:07;;;;;;;;;9.75;9.00;;;;;;;;5078938;28;46541;-65
2022/12/20 00:19:32;;;;;;;;;10.00;8.67;;;;;;;;5075396;28;45383;-63
2022/12/20 00:21:57;;;;;;;;;8.67;8.67;;;;;;;;5078842;27;45413;-65
2022/12/20 00:24:22;;;;;;;;;10.33;8.00;;;;;;;;5078362;27;45475;-66
2022/12/20 00:26:47;;;;;;;;;9.75;8.00;;;;;;;;5078657;27;45512;-65
2022/12/20 00:29:13;;;;;;;;;10.33;9.00;;;;;;;;5078400;27;45693;-64
2022/12/20 00:31:38;;;;;;;;;7.33;7.33;;;;;;;;5077994;28;45579;-64
2022/12/20 00:34:04;;;;;;;;;8.00;7.00;;;;;;;;5079296;28;45387;-63
2022/12/20 00:36:30;;;;;;;;;7.75;6.00;;;;;;;;5078043;28;46126;-63
2022/12/20 00:38:56;;;;;;;;;9.00;7.67;;;;;;;;5069015;27;45482;-64
2022/12/20 00:41:29;;;;;;;;;8.33;6.67;;;;;;;;5077827;28;45536;-64
2022/12/20 00:43:54;;;;;;;;;11.67;10.00;;;;;;;;5078611;27;45208;-64
2022/12/20 00:46:22;;;;;;;;;9.00;8.00;;;;;;;;5075677;28;46180;-64
2022/12/20 00:48:47;;;;;;;;;11.00;7.00;;;;;;;;5058910;28;45807;-63
2022/12/20 00:51:14;;;;;;;;;8.33;7.33;;;;;;;;5077447;27;45284;-63
2022/12/20 00:53:39;;;;;;;;;7.33;7.33;;;;;;;;5077098;27;45718;-64
2022/12/20 00:56:05;;;;;;;;;13.00;8.00;;;;;;;;5076294;27;45911;-64
2022/12/20 00:58:31;;;;;;;;;9.33;8.00;;;;;;;;5059446;28;45472;-64
2022/12/20 01:00:56;;;;;;;;;8.67;7.00;;;;;;;;5078597;27;45380;-64
2022/12/20 01:03:22;;;;;;;;;7.00;7.00;;;;;;;;5079006;28;45420;-64
2022/12/20 01:05:51;;;;;;;;;5.67;5.67;;;;;;;;5077718;28;47018;-64
2022/12/20 01:08:16;;;;;;;;;8.33;8.33;;;;;;;;5077570;28;45524;-65
2022/12/20 01:10:42;;;;;;;;;9.50;8.00;;;;;;;;5077589;27;45387;-64
2022/12/20 01:13:07;;;;;;;;;9.50;8.00;;;;;;;;5079176;28;45368;-64
2022/12/20 01:15:32;;;;;;;;;12.00;10.00;;;;;;;;5078535;28;47289;-65
2022/12/20 01:17:57;;;;;;;;;14.75;8.50;;;;;;;;5078493;28;45280;-64
2022/12/20 01:20:23;;;;;;;;;8.25;7.00;;;;;;;;5078757;27;45529;-65
2022/12/20 01:22:49;;;;;;;;;10.50;7.25;;;;;;;;5077678;27;45675;-65
2022/12/20 01:25:14;;;;;;;;;8.75;7.75;;;;;;;;5078472;28;45665;-65
2022/12/20 01:27:40;;;;;;;;;8.25;8.00;;;;;;;;5076760;27;45396;-65
2022/12/20 01:30:05;;;;;;;;;10.50;7.75;;;;;;;;5078470;28;45479;-65
2022/12/20 01:32:30;;;;;;;;;6.50;6.50;;;;;;;;5076463;28;45318;-65
2022/12/20 01:34:56;;;;;;;;;9.00;9.00;;;;;;;;5077744;28;45734;-65
2022/12/20 01:37:21;;;;;;;;;11.33;9.00;;;;;;;;5078432;28;45617;-65
2022/12/20 01:39:46;;;;;;;;;10.00;9.00;;;;;;;;5078597;27;45307;-65
2022/12/20 01:42:13;;;;;;;;;9.33;9.33;;;;;;;;5078346;28;45430;-65
2022/12/20 01:44:41;;;;;;;;;11.33;11.33;;;;;;;;5076502;27;45767;-65
2022/12/20 01:47:07;;;;;;;;;13.67;10.00;;;;;;;;5078213;28;45791;-65
2022/12/20 01:49:38;;;;;;;;;11.33;9.67;;;;;;;;5078285;28;45824;-65
2022/12/20 01:52:05;;;;;;;;;15.00;9.00;;;;;;;;5078480;28;45240;-64
2022/12/20 01:54:32;;;;;;;;;10.00;9.00;;;;;;;;5077808;28;46518;-65
2022/12/20 01:57:00;;;;;;;;;10.00;10.00;;;;;;;;5077823;28;45375;-65
2022/12/20 01:59:26;;;;;;;;;8.00;8.00;;;;;;;;5076983;28;45265;-65
2022/12/20 02:01:51;;;;;;;;;11.00;7.75;;;;;;;;5077344;27;45562;-64
2022/12/20 02:04:17;;;;;;;;;10.67;9.00;;;;;;;;5078009;28;46300;-65
2022/12/20 02:06:42;;;;;;;;;12.50;9.00;;;;;;;;5077890;28;45378;-65
2022/12/20 02:09:07;;;;;;;;;11.33;9.33;;;;;;;;5078202;28;45192;-64
2022/12/20 02:11:33;;;;;;;;;8.75;8.00;;;;;;;;5077069;27;45398;-65
2022/12/20 02:14:06;;;;;;;;;6.50;6.50;;;;;;;;5076425;27;46441;-64
2022/12/20 02:16:37;;;;;;;;;9.00;7.25;;;;;;;;5076615;27;45343;-65
2022/12/20 02:19:23;;;;;;;;;10.67;8.00;;;;;;;;5077780;28;45453;-64
2022/12/20 02:21:51;;;;;;;;;9.00;8.50;;;;;;;;5076854;28;45624;-65
2022/12/20 02:24:36;;;;;;;;;9.50;8.75;;;;;;;;5076311;28;46848;-65
2022/12/20 02:27:07;;;;;;;;;9.00;9.00;;;;;;;;5077441;27;45407;-65
2022/12/20 02:29:35;;;;;;;;;8.00;8.00;;;;;;;;5077841;28;45303;-64
2022/12/20 02:32:11;;;;;;;;;10.33;8.33;;;;;;;;5076134;27;45298;-64
2022/12/20 02:34:38;;;;;;;;;16.00;9.00;;;;;;;;5076481;28;45427;-64
2022/12/20 02:37:04;;;;;;;;;7.67;7.67;;;;;;;;5077495;28;45257;-65
2022/12/20 02:39:30;;;;;;;;;8.33;6.00;;;;;;;;5077429;28;45325;-65
2022/12/20 02:42:06;;;;;;;;;8.00;7.00;;;;;;;;5076704;28;45621;-64
2022/12/20 02:47:20;;;;;;;;;9.50;9.00;;;;;;;;5076425;27;45393;-64
2022/12/20 02:49:46;;;;;;;;;10.00;7.00;;;;;;;;5076404;28;45395;-65
2022/12/20 02:52:12;;;;;;;;;8.00;8.00;;;;;;;;5076811;28;45464;-65
2022/12/20 02:54:37;;;;;;;;;8.00;6.67;;;;;;;;5076860;28;46414;-62
2022/12/20 02:57:19;;;;;;;;;9.50;8.00;;;;;;;;5076911;28;45555;-62
2022/12/20 02:59:49;;;;;;;;;8.75;6.75;;;;;;;;5077263;28;45494;-62
2022/12/20 03:02:14;;;;;;;;;10.33;8.00;;;;;;;;5077561;28;45224;-62
2022/12/20 03:04:40;;;;;;;;;9.00;7.00;;;;;;;;5075576;27;46511;-62
2022/12/20 03:07:11;;;;;;;;;11.50;9.25;;;;;;;;5077542;28;45391;-62
2022/12/20 03:09:38;;;;;;;;;10.50;7.00;;;;;;;;5062659;28;45325;-62
2022/12/20 03:12:06;;;;;;;;;7.67;6.00;;;;;;;;5080785;28;45495;-62
2022/12/20 03:14:31;;;;;;;;;9.25;8.25;;;;;;;;5079518;27;46603;-62
2022/12/20 03:16:57;;;;;;;;;9.00;8.00;;;;;;;;5080567;28;45435;-62
2022/12/20 03:19:22;;;;;;;;;10.33;7.67;;;;;;;;5080584;28;45691;-63
2022/12/20 03:21:48;;;;;;;;;8.00;8.00;;;;;;;;5079594;27;45383;-62
2022/12/20 03:24:13;;;;;;;;;10.33;8.00;;;;;;;;5080468;28;45602;-62
2022/12/20 03:26:42;;;;;;;;;9.00;9.00;;;;;;;;5080462;28;45451;-62
2022/12/20 03:29:07;;;;;;;;;11.25;8.00;;;;;;;;5079343;28;45320;-63
2022/12/20 03:31:33;;;;;;;;;7.33;7.33;;;;;;;;5080704;27;45284;-62
2022/12/20 03:33:58;;;;;;;;;12.67;8.00;;;;;;;;5080266;28;45736;-62
2022/12/20 03:36:23;;;;;;;;;8.00;6.75;;;;;;;;5079324;27;45632;-63
2022/12/20 03:38:49;;;;;;;;;5.50;5.50;;;;;;;;5079532;28;45321;-63
2022/12/20 03:41:14;;;;;;;;;8.75;7.25;;;;;;;;5080429;28;45753;-62
2022/12/20 03:43:39;;;;;;;;;10.33;8.00;;;;;;;;5080007;28;45279;-63
2022/12/20 03:46:05;;;;;;;;;9.00;7.75;;;;;;;;5080161;27;45451;-62
2022/12/20 03:48:30;;;;;;;;;8.50;8.00;;;;;;;;5080136;28;45518;-62
2022/12/20 03:50:55;;;;;;;;;8.25;6.25;;;;;;;;5080510;28;45327;-62
2022/12/20 03:53:20;;;;;;;;;8.00;6.50;;;;;;;;5078405;27;48673;-62
2022/12/20 03:55:46;;;;;;;;;12.25;7.00;;;;;;;;5079926;28;45406;-62
2022/12/20 03:58:11;;;;;;;;;9.00;7.25;;;;;;;;5079927;28;45221;-62
2022/12/20 04:00:36;;;;;;;;;11.00;9.00;;;;;;;;5080031;28;45380;-62
2022/12/20 04:03:01;;;;;;;;;9.00;7.25;;;;;;;;5079943;28;46568;-62
2022/12/20 04:05:27;;;;;;;;;8.00;8.00;;;;;;;;5078834;28;45486;-63
2022/12/20 04:07:52;;;;;;;;;8.25;7.00;;;;;;;;5080008;27;45307;-65
2022/12/20 04:10:17;;;;;;;;;8.25;7.00;;;;;;;;5079140;27;45546;-63
2022/12/20 04:12:42;;;;;;;;;5.75;5.75;;;;;;;;5079680;28;45706;-62
2022/12/20 04:15:08;;;;;;;;;7.00;7.00;;;;;;;;5079383;27;45338;-63
2022/12/20 04:17:33;;;;;;;;;4.75;3.75;;;;;;;;5079648;28;45288;-62
2022/12/20 04:20:17;;;;;;;;;7.00;7.00;;;;;;;;5077866;28;45278;-63
2022/12/20 04:22:42;;;;;;;;;7.00;6.75;;;;;;;;5079551;28;46401;-63
2022/12/20 04:25:08;;;;;;;;;8.25;7.00;;;;;;;;5077625;27;45246;-63
2022/12/20 04:27:33;;;;;;;;;8.25;8.00;;;;;;;;5078739;28;45448;-63
2022/12/20 04:29:58;;;;;;;;;8.00;8.00;;;;;;;;5079679;27;45442;-63
2022/12/20 04:32:23;;;;;;;;;9.00;7.67;;;;;;;;5078087;27;45614;-63
2022/12/20 04:34:48;;;;;;;;;8.00;7.00;;;;;;;;5078763;28;45530;-63
2022/12/20 04:37:14;;;;;;;;;9.00;6.00;;;;;;;;5079410;28;45755;-62
2022/12/20 04:39:39;;;;;;;;;6.25;6.00;;;;;;;;5079675;28;45388;-63
2022/12/20 04:42:04;;;;;;;;;7.50;6.00;;;;;;;;5078202;28;46331;-63
2022/12/20 04:44:29;;;;;;;;;9.00;7.00;;;;;;;;5078053;27;45511;-63
2022/12/20 04:46:54;;;;;;;;;4.50;4.50;;;;;;;;5079381;28;45312;-62
2022/12/20 04:49:20;;;;;;;;;5.00;5.00;;;;;;;;5079375;28;45286;-62
2022/12/20 04:51:45;;;;;;;;;7.00;6.00;;;;;;;;5079061;28;45497;-63
2022/12/20 04:54:10;;;;;;;;;6.75;6.75;;;;;;;;5078480;28;45515;-63
2022/12/20 04:56:35;;;;;;;;;7.75;6.00;;;;;;;;5079140;28;45428;-63
2022/12/20 04:59:01;;;;;;;;;7.50;7.50;;;;;;;;5078126;27;45548;-63
2022/12/20 05:01:26;;;;;;;;;6.50;6.50;;;;;;;;5078848;28;46012;-63
2022/12/20 05:03:52;;;;;;;;;6.75;6.75;;;;;;;;5078968;27;45356;-62
2022/12/20 05:06:17;;;;;;;;;6.00;6.00;;;;;;;;5078961;28;45253;-63
2022/12/20 05:08:43;;;;;;;;;6.00;6.00;;;;;;;;5078474;28;45415;-63
2022/12/20 05:11:08;;;;;;;;;7.33;6.00;;;;;;;;5078824;28;46526;-63
2022/12/20 05:13:33;;;;;;;;;5.00;5.00;;;;;;;;5077868;27;46783;-63
2022/12/20 05:15:59;;;;;;;;;13.67;12.00;;;;;;;;5076961;27;45558;-63
2022/12/20 05:18:25;;;;;;;;;13.33;11.00;;;;;;;;5078217;28;45917;-63
2022/12/20 05:26:16;;;;;;;;;8.33;8.00;;;;;;;;5078311;27;47019;-63
2022/12/20 05:26:20;;;;;;;;;8.00;7.00;;;;;;;;5077465;28;45326;-63
2022/12/20 05:28:45;;;;;;;;;7.67;6.33;;;;;;;;5078815;28;45416;-63
2022/12/20 05:31:10;;;;;;;;;9.00;6.25;;;;;;;;5077772;28;45517;-63
2022/12/20 05:33:36;;;;;;;;;7.75;6.50;;;;;;;;5077658;27;45496;-62
2022/12/20 05:36:01;;;;;;;;;7.75;5.00;;;;;;;;5078583;28;45349;-63
2022/12/20 05:38:26;;;;;;;;;7.50;6.00;;;;;;;;5078714;28;45309;-63
2022/12/20 05:40:51;;;;;;;;;7.00;7.00;;;;;;;;5075364;27;46343;-63
2022/12/20 05:43:17;;;;;;;;;8.33;7.67;;;;;;;;5078059;28;45427;-63
2022/12/20 05:45:47;;;;;;;;;5.75;4.00;;;;;;;;5078455;28;45425;-63
2022/12/20 05:48:12;;;;;;;;;7.00;6.75;;;;;;;;5076938;27;45530;-63
2022/12/20 05:50:37;;;;;;;;;6.50;6.50;;;;;;;;5078103;27;45887;-63
2022/12/20 05:53:03;;;;;;;;;2.00;2.00;;;;;;;;5078156;28;45395;-63
2022/12/20 05:55:28;;;;;;;;;6.00;5.75;;;;;;;;5077941;28;45238;-63
2022/12/20 05:57:53;;;;;;;;;8.00;8.00;;;;;;;;5077854;27;45447;-63
2022/12/20 06:00:18;;;;;;;;;13.25;7.50;;;;;;;;5077301;28;46229;-63
2022/12/20 06:02:44;;;;;;;;;5.75;5.75;;;;;;;;5078018;28;45724;-63
2022/12/20 06:05:09;;;;;;;;;6.00;6.00;;;;;;;;5077464;27;45439;-63
2022/12/20 06:07:34;;;;;;;;;6.00;6.00;;;;;;;;5077769;27;45305;-63
2022/12/20 06:09:59;;;;;;;;;8.25;6.00;;;;;;;;5077897;28;45360;-63
2022/12/20 06:12:25;;;;;;;;;7.50;6.00;;;;;;;;5077326;27;45598;-63
2022/12/20 06:14:51;;;;;;;;;5.00;5.00;;;;;;;;5077728;28;45289;-62
2022/12/20 06:17:17;;;;;;;;;8.00;6.00;;;;;;;;5077960;27;45538;-63
2022/12/20 06:19:42;;;;;;;;;4.50;4.50;;;;;;;;5075609;27;45491;-63
2022/12/20 06:22:08;;;;;;;;;6.00;5.00;;;;;;;;5077652;28;45341;-63
2022/12/20 06:24:34;;;;;;;;;9.50;7.00;;;;;;;;5077861;28;45451;-63
2022/12/20 06:26:59;;;;;;;;;12.50;8.75;;;;;;;;5077949;28;45300;-64
2022/12/20 06:29:24;;;;;;;;;7.00;6.00;;;;;;;;5075555;27;46783;-63
2022/12/20 06:31:50;;;;;;;;;6.00;5.25;;;;;;;;5076463;27;45411;-63
2022/12/20 06:34:15;;;;;;;;;13.50;7.00;;;;;;;;5076759;27;45393;-63
2022/12/20 06:36:40;;;;;;;;;6.75;6.75;;;;;;;;5077603;28;45383;-63
2022/12/20 06:39:08;;;;;;;;;6.50;6.50;;;;;;;;5077117;27;45713;-63
2022/12/20 06:41:33;;;;;;;;;6.25;5.25;;;;;;;;5076612;28;45391;-63
2022/12/20 06:43:58;;;;;;;;;6.75;6.00;;;;;;;;5076750;28;45242;-63
2022/12/20 06:46:24;;;;;;;;;5.75;5.75;;;;;;;;5075232;27;45415;-63
2022/12/20 06:48:49;;;;;;;;;6.75;5.00;;;;;;;;5077169;28;46117;-63
2022/12/20 06:51:16;;;;;;;;;9.00;8.00;;;;;;;;5077528;28;45391;-63
2022/12/20 06:53:41;;;;;;;;;9.00;6.00;;;;;;;;5075777;28;45506;-63
2022/12/20 06:56:06;;;;;;;;;4.00;4.00;;;;;;;;5077415;28;45329;-63
2022/12/20 06:58:31;;;;;;;;;5.75;5.75;;;;;;;;5075931;28;46341;-63
2022/12/20 07:00:56;;;;;;;;;6.00;5.25;;;;;;;;5075905;27;45481;-63
2022/12/20 07:03:22;;;;;;;;;8.25;7.00;;;;;;;;5076949;27;45418;-63
2022/12/20 07:05:51;;;;;;;;;8.50;5.75;;;;;;;;5077317;28;45373;-63
2022/12/20 07:08:16;;;;;;;;;7.00;6.00;;;;;;;;5076699;28;45654;-62
2022/12/20 07:10:41;;;;;;;;;6.00;5.25;;;;;;;;5076975;28;45511;-64
2022/12/20 07:13:08;;;;;;;;;5.25;4.75;;;;;;;;5076522;28;45411;-64
2022/12/20 07:15:33;;;;;;;;;7.25;5.00;;;;;;;;5077266;28;45448;-64
2022/12/20 07:17:59;;;;;;;;;5.25;5.00;;;;;;;;5076610;28;46135;-64
2022/12/20 07:20:24;;;;;;;;;4.75;4.75;;;;;;;;5074614;27;45459;-64
2022/12/20 07:22:49;;;;;;;;;5.25;5.25;;;;;;;;5076800;28;45538;-64
2022/12/20 07:25:14;;;;;;;;;6.00;6.00;;;;;;;;5076954;28;45484;-64
2022/12/20 07:27:40;;;;;;;;;8.00;5.75;;;;;;;;5076876;28;46872;-64
2022/12/20 07:30:06;;;;;;;;;9.33;8.00;;;;;;;;5076779;28;45333;-64
2022/12/20 07:32:31;;;;;;;;;8.00;5.00;;;;;;;;5076005;27;45486;-64
2022/12/20 07:34:56;;;;;;;;;9.75;5.50;;;;;;;;5077291;28;45359;-64
2022/12/20 07:37:21;;;;;;;;;6.75;6.50;;;;;;;;5075573;27;46699;-64
2022/12/20 07:39:47;;;;;;;;;5.25;5.25;;;;;;;;5076712;28;45439;-64
2022/12/20 07:42:12;;;;;;;;;7.25;5.75;;;;;;;;5076796;28;45413;-64
2022/12/20 07:44:37;;;;;;;;;5.25;5.25;;;;;;;;5077003;28;45230;-63
2022/12/20 07:47:02;;;;;;;;;5.00;5.00;;;;;;;;5075294;28;46526;-63
2022/12/20 07:49:28;;;;;;;;;8.00;6.00;;;;;;;;5076548;28;45432;-63
2022/12/20 07:51:55;;;;;;;;;6.50;6.25;;;;;;;;5076853;28;45292;-63
2022/12/20 07:54:23;;;;;;;;;6.00;5.25;;;;;;;;5078111;27;45521;-64
2022/12/20 07:56:50;;;;;;;;;6.50;6.00;;;;;;;;5079653;28;46430;-64
2022/12/20 07:59:19;;;;;;;;;7.00;5.00;;;;;;;;5079925;28;45257;-64
2022/12/20 08:01:45;;;;;;;;;12.33;11.67;;;;;;;;5078864;27;46074;-64
2022/12/20 08:04:13;;;;;;;;;6.25;5.50;;;;;;;;5079840;28;45449;-64
2022/12/20 08:06:39;;;;;;;;;5.25;5.25;;;;;;;;5079219;28;46682;-64
2022/12/20 08:09:04;;;;;;;;;6.75;6.75;;;;;;;;5078938;27;45270;-64
2022/12/20 08:11:32;;;;;;;;;6.00;4.75;;;;;;;;5078338;27;45450;-64
2022/12/20 08:13:58;;;;;;;;;5.25;4.25;;;;;;;;5080016;27;45904;-64
2022/12/20 08:16:23;;;;;;;;;5.75;5.25;;;;;;;;5079599;28;46529;-64
2022/12/20 08:18:48;;;;;;;;;5.33;4.67;;;;;;;;5078516;28;45397;-64
2022/12/20 08:21:13;;;;;;;;;8.00;4.00;;;;;;;;5079627;28;45349;-65
2022/12/20 08:23:39;;;;;;;;;5.75;4.25;;;;;;;;5079726;28;45394;-63
2022/12/20 08:26:04;;;;;;;;;7.50;6.00;;;;;;;;5076860;27;45864;-64
2022/12/20 08:28:30;;;;;;;;;8.75;6.00;;;;;;;;5079414;27;45241;-63
2022/12/20 08:31:13;;;;;;;;;4.25;4.25;;;;;;;;5079120;28;45434;-64
2022/12/20 08:33:39;;;;;;;;;6.00;6.00;;;;;;;;5079120;28;45425;-65
2022/12/20 08:36:06;;;;;;;;;4.75;4.50;;;;;;;;5078960;28;47303;-65
2022/12/20 08:38:31;;;;;;;;;4.75;4.00;;;;;;;;5078569;28;45374;-65
2022/12/20 08:41:15;;;;;;;;;8.50;6.00;;;;;;;;5078594;27;45488;-65
2022/12/20 08:43:40;;;;;;;;;13.00;6.00;;;;;;;;5059280;28;45411;-65
2022/12/20 08:46:06;;;;;;;;;10.33;10.33;;;;;;;;5067113;28;45919;-64
2022/12/20 08:48:32;;;;;;;;;6.25;5.00;;;;;;;;5078917;28;45773;-65
2022/12/20 08:50:59;;;;;;;;;5.50;4.75;;;;;;;;5079204;28;45457;-64
2022/12/20 08:53:25;;;;;;;;;5.00;5.00;;;;;;;;5079333;28;45480;-64
2022/12/20 08:55:50;;;;;;;;;7.50;6.00;;;;;;;;5078676;28;46254;-64
2022/12/20 08:58:16;;;;;;;;;5.50;4.00;;;;;;;;5077230;27;45531;-64
2022/12/20 09:00:41;;;;;;;;;5.00;5.00;;;;;;;;5078856;28;45406;-66
2022/12/20 09:03:07;;;;;;;;;5.00;5.00;;;;;;;;5078249;27;45414;-67
2022/12/20 09:05:32;;;;;;;;;7.50;5.25;;;;;;;;5076887;28;46110;-67
2022/12/20 09:07:57;;;;;;;;;7.00;7.00;;;;;;;;5078200;28;45482;-66
2022/12/20 09:10:22;;;;;;;;;15.33;10.00;;;;;;;;5078919;28;45723;-65
2022/12/20 09:12:48;;;;;;;;;10.00;9.00;;;;;;;;5078221;28;45591;-66
2022/12/20 09:15:13;;;;;;;;;7.50;7.50;;;;;;;;5076568;27;45656;-65
2022/12/20 09:17:39;;;;;;;;;7.00;5.00;;;;;;;;5078245;28;45336;-63
2022/12/20 09:20:04;;;;;;;;;10.67;10.67;;;;;;;;5077759;28;45793;-66
2022/12/20 09:22:29;;;;;;;;;7.25;6.00;;;;;;;;5078607;27;45381;-66
2022/12/20 09:24:55;;;;;;;;;4.00;2.00;;;;;;;;5077437;27;45610;-65
2022/12/20 09:27:21;;;;;;;;;8.00;6.00;;;;;;;;5077449;28;45380;-67
2022/12/20 09:29:46;;;;;;;;;19.33;16.67;;;;;;;;5078518;28;45505;-67
2022/12/20 09:32:12;;;;;;;;;7.50;6.00;;;;;;;;5078099;27;45348;-67
2022/12/20 09:34:38;;;;;;;;;8.00;6.00;;;;;;;;5078168;28;45712;-67
2022/12/20 09:37:03;;;;;;;;;10.50;4.75;;;;;;;;5078063;28;45386;-67
2022/12/20 09:39:28;;;;;;;;;10.25;7.25;;;;;;;;5077708;27;45307;-67
2022/12/20 09:41:53;;;;;;;;;9.50;7.25;;;;;;;;5078053;27;45367;-68
2022/12/20 09:44:22;;;;;;;;;8.25;8.25;;;;;;;;5077281;27;46408;-68
2022/12/20 09:46:52;;;;;;;;;6.00;6.00;;;;;;;;5078091;28;45470;-68
2022/12/20 09:49:18;;;;;;;;;12.00;9.00;;;;;;;;5076797;28;45570;-67
2022/12/20 09:51:53;;;;;;;;;13.33;12.33;;;;;;;;5077980;28;45447;-68
2022/12/20 09:54:25;;;;;;;;;11.75;6.00;;;;;;;;5076517;27;45598;-67
2022/12/20 09:56:56;;;;;;;;;7.00;5.00;;;;;;;;5076783;27;45344;-67
2022/12/20 09:59:22;;;;;;;;;25.67;24.33;;;;;;;;5080004;27;45707;-67
2022/12/20 10:01:49;;;;;;;;;23.33;22.00;;;;;;;;5098704;27;45293;-67
2022/12/20 10:04:25;;;;;;;;;12.67;11.33;;;;;;;;5080496;27;46630;-67
2022/12/20 10:07:03;;;;;;;;;7.50;7.00;;;;;;;;5075849;28;45483;-67
2022/12/20 10:09:28;;;;;;;;;7.25;6.00;;;;;;;;5076853;28;45507;-67
2022/12/20 10:11:53;;;;;;;;;8.25;5.75;;;;;;;;5076371;27;45720;-67
2022/12/20 10:14:33;;;;;;;;;6.00;5.75;;;;;;;;5075074;27;46425;-68
2022/12/20 10:17:17;;;;;;;;;8.00;7.75;;;;;;;;5074714;27;45509;-67
2022/12/20 10:19:45;;;;;;;;;7.50;7.00;;;;;;;;5077955;27;45522;-67
2022/12/20 10:22:19;;;;;;;;;7.00;7.00;;;;;;;;5077084;28;45467;-66
2022/12/20 10:24:50;;;;;;;;;5.00;5.00;;;;;;;;5075151;28;46702;-67
2022/12/20 10:27:36;;;;;;;;;10.25;6.75;;;;;;;;5077479;28;45643;-68
2022/12/20 10:30:10;;;;;;;;;7.25;6.25;;;;;;;;5056620;28;45359;-68
2022/12/20 10:32:35;;;;;;;;;8.33;8.33;;;;;;;;5076626;27;46684;-69
2022/12/20 10:35:09;;;;;;;;;6.00;6.00;;;;;;;;5074905;27;46082;-69
2022/12/20 10:37:35;;;;;;;;;8.33;6.67;;;;;;;;5076032;27;45241;-68
2022/12/20 10:40:00;;;;;;;;;8.67;8.67;;;;;;;;5073943;27;45243;-68
2022/12/20 10:42:34;;;;;;;;;6.67;6.67;;;;;;;;5074808;27;45473;-67
2022/12/20 10:45:00;;;;;;;;;5.33;5.00;;;;;;;;5074982;27;46749;-67
2022/12/20 10:47:34;;;;;;;;;10.67;9.33;;;;;;;;5075362;28;45521;-67
2022/12/20 10:50:07;;;;;;;;;7.00;7.00;;;;;;;;5068954;27;46032;-68
2022/12/20 10:52:32;;;;;;;;;9.33;7.00;;;;;;;;5073350;28;45577;-68
2022/12/20 10:54:57;;;;;;;;;10.00;10.00;;;;;;;;5075541;28;45457;-67
2022/12/20 10:57:27;;;;;;;;;6.25;6.25;;;;;;;;5076271;28;45407;-67
2022/12/20 10:59:56;;;;;;;;;6.50;5.25;;;;;;;;5076358;28;45523;-67
2022/12/20 11:02:27;;;;;;;;;11.25;8.00;;;;;;;;5075932;27;45453;-67
2022/12/20 11:04:56;;;;;;;;;8.00;6.50;;;;;;;;5076052;28;46207;-67
2022/12/20 11:07:29;;;;;;;;;10.00;8.33;;;;;;;;5076417;27;45507;-68
2022/12/20 11:09:56;;;;;;;;;5.75;5.00;;;;;;;;5075587;28;45409;-67
2022/12/20 11:12:22;;;;;;;;;5.00;5.00;;;;;;;;5075038;27;45485;-67
2022/12/20 11:14:48;;;;;;;;;12.00;10.00;;;;;;;;5073158;28;46328;-67
2022/12/20 11:17:13;;;;;;;;;7.67;7.33;;;;;;;;5076241;28;45426;-68
2022/12/20 11:19:38;;;;;;;;;9.50;8.25;;;;;;;;5074368;28;45534;-68
2022/12/20 11:22:06;;;;;;;;;21.33;21.33;;;;;;;;5076226;28;45791;-67
2022/12/20 11:24:41;;;;;;;;;17.00;14.00;;;;;;;;5075967;28;47392;-67
2022/12/20 11:27:26;;;;;;;;;6.50;5.25;;;;;;;;5076118;28;45376;-68
2022/12/20 11:30:04;;;;;;;;;7.25;7.00;;;;;;;;5078565;27;45395;-68
2022/12/20 11:32:32;;;;;;;;;6.25;6.00;;;;;;;;5078467;27;45498;-68
2022/12/20 11:35:06;;;;;;;;;6.00;4.25;;;;;;;;5079052;27;46182;-65
2022/12/20 11:37:50;;;;;;;;;7.50;5.50;;;;;;;;5079585;27;45435;-65
2022/12/20 11:40:39;;;;;;;;;9.50;6.00;;;;;;;;5078866;28;45467;-66
2022/12/20 11:43:19;;;;;;;;;11.25;9.75;;;;;;;;4958210;28;45581;-66
2022/12/20 11:45:46;;;;;;;;;7.25;5.00;;;;;;;;4956587;28;45504;-66
2022/12/20 11:48:30;;;;;;;;;5.75;5.75;;;;;;;;4957266;28;45402;-66
2022/12/20 11:51:02;;;;;;;;;9.00;5.25;;;;;;;;4958020;28;45513;-66
2022/12/20 11:53:45;;;;;;;;;11.00;9.25;;;;;;;;4957456;28;45508;-66
2022/12/20 11:56:16;;;;;;;;;6.25;6.25;;;;;;;;4952201;28;46400;-66
2022/12/20 11:58:50;;;;;;;;;8.75;8.00;;;;;;;;4951575;28;45536;-66
2022/12/20 12:01:17;;;;;;;;;7.25;7.25;;;;;;;;4946625;28;45645;-66
2022/12/20 12:03:50;;;;;;;;;7.00;6.50;;;;;;;;4951044;28;45407;-67
2022/12/20 12:06:26;;;;;;;;;11.67;9.33;;;;;;;;4947802;28;46426;-67
2022/12/20 12:09:14;;;;;;;;;8.75;7.00;;;;;;;;4948939;28;45470;-66
2022/12/20 12:11:48;;;;;;;;;9.50;8.00;;;;;;;;4909250;28;45441;-66
2022/12/20 12:14:17;;;;;;;;;5.50;5.50;;;;;;;;4910654;28;45601;-66
2022/12/20 12:16:46;;;;;;;;;8.50;5.00;;;;;;;;4904901;28;46250;-66
2022/12/20 12:19:12;;;;;;;;;5.50;5.00;;;;;;;;4927863;28;45539;-66
2022/12/20 12:21:43;;;;;;;;;14.25;6.75;;;;;;;;4996465;28;45421;-66
2022/12/20 12:24:11;;;;;;;;;5.00;5.00;;;;;;;;4996678;28;45977;-66
2022/12/20 12:26:40;;;;;;;;;8.50;6.00;;;;;;;;4996300;28;46711;-66
2022/12/20 12:29:08;;;;;;;;;7.25;6.25;;;;;;;;4996688;28;45543;-66
2022/12/20 12:31:37;;;;;;;;;9.25;8.00;;;;;;;;4996416;28;45477;-66
2022/12/20 12:34:21;;;;;;;;;8.00;7.25;;;;;;;;4996082;28;45457;-66
2022/12/20 12:37:02;;;;;;;;;7.50;6.00;;;;;;;;4995439;28;47254;-66
2022/12/20 12:39:48;;;;;;;;;5.00;5.00;;;;;;;;5003389;28;45433;-66
2022/12/20 12:42:29;;;;;;;;;7.00;6.50;;;;;;;;4997414;28;45539;-66
2022/12/20 12:44:56;;;;;;;;;4.25;4.25;;;;;;;;5006172;28;45432;-66
2022/12/20 12:47:27;;;;;;;;;10.25;7.00;;;;;;;;4994647;28;46509;-66
2022/12/20 12:49:54;;;;;;;;;23.33;21.67;;;;;;;;5077246;28;45408;-66
2022/12/20 12:52:26;;;;;;;;;3.00;1.00;;;;;;;;5078057;27;45381;-66
2022/12/20 12:54:51;;;;;;;;;8.50;6.25;;;;;;;;5077620;27;45462;-68
2022/12/20 12:57:17;;;;;;;;;6.75;6.50;;;;;;;;5078319;28;46338;-67
2022/12/20 12:59:46;;;;;;;;;9.25;8.00;;;;;;;;5077379;28;45420;-67
2022/12/20 13:02:14;;;;;;;;;8.50;8.50;;;;;;;;5077952;27;45498;-67
2022/12/20 13:04:55;;;;;;;;;5.25;5.25;;;;;;;;5076288;27;45538;-67
2022/12/20 13:07:32;;;;;;;;;8.00;6.50;;;;;;;;5076061;27;47556;-68
2022/12/20 13:09:58;;;;;;;;;10.25;8.75;;;;;;;;5076644;27;45895;-67
2022/12/20 13:12:35;;;;;;;;;8.67;7.00;;;;;;;;5076517;28;45514;-67
2022/12/20 13:15:02;;;;;;;;;8.75;5.00;;;;;;;;5077836;28;45534;-67
2022/12/20 13:17:27;;;;;;;;;8.75;7.25;;;;;;;;5077539;27;46514;-67
2022/12/20 13:19:54;;;;;;;;;7.00;6.50;;;;;;;;5072242;27;45455;-66
2022/12/20 13:22:21;;;;;;;;;11.75;8.00;;;;;;;;5075862;27;45282;-66
2022/12/20 13:24:49;;;;;;;;;8.75;7.25;;;;;;;;5078298;27;45354;-66
2022/12/20 13:27:14;;;;;;;;;12.00;8.00;;;;;;;;5077218;28;46457;-66
2022/12/20 13:29:50;;;;;;;;;10.50;7.00;;;;;;;;5076076;27;45655;-66
2022/12/20 13:32:34;;;;;;;;;8.50;8.00;;;;;;;;5076478;27;45416;-67
2022/12/20 13:35:00;;;;;;;;;7.75;4.75;;;;;;;;5075782;27;45330;-67
2022/12/20 13:37:48;;;;;;;;;6.25;6.25;;;;;;;;5076401;27;45518;-66
2022/12/20 13:40:35;;;;;;;;;15.00;8.00;;;;;;;;5075085;27;45416;-66
2022/12/20 13:43:16;;;;;;;;;11.00;8.75;;;;;;;;5076878;27;45250;-67
2022/12/20 13:45:44;;;;;;;;;12.25;8.00;;;;;;;;5077046;27;45503;-66
2022/12/20 13:48:13;;;;;;;;;11.75;9.00;;;;;;;;5075955;27;46782;-66
2022/12/20 13:50:39;;;;;;;;;10.75;8.00;;;;;;;;5073921;27;45437;-66
2022/12/20 13:53:05;;;;;;;;;7.75;5.50;;;;;;;;5061952;28;45357;-68
2022/12/20 13:55:38;;;;;;;;;9.25;5.75;;;;;;;;5073700;27;45902;-67
2022/12/20 13:58:11;;;;;;;;;6.00;6.00;;;;;;;;5057046;28;46610;-66
2022/12/20 14:00:37;;;;;;;;;7.00;6.25;;;;;;;;5064676;27;45388;-65
2022/12/20 14:03:02;;;;;;;;;6.00;6.00;;;;;;;;5076704;27;45360;-65
2022/12/20 14:05:32;;;;;;;;;17.67;12.67;;;;;;;;5077753;27;45337;-65
2022/12/20 14:07:57;;;;;;;;;7.50;7.50;;;;;;;;5076730;27;47002;-66
2022/12/20 14:10:23;;;;;;;;;9.00;8.00;;;;;;;;5077107;28;45859;-65
2022/12/20 14:12:50;;;;;;;;;17.33;17.33;;;;;;;;5078991;27;45372;-66
2022/12/20 14:15:23;;;;;;;;;23.33;18.00;;;;;;;;5075284;27;45539;-66
2022/12/20 14:17:48;;;;;;;;;9.75;7.75;;;;;;;;5070946;27;45458;-64
2022/12/20 14:20:15;;;;;;;;;7.00;6.25;;;;;;;;5074629;27;45374;-65
2022/12/20 14:23:00;;;;;;;;;9.75;9.75;;;;;;;;5076527;28;45836;-65
2022/12/20 14:25:29;;;;;;;;;10.00;8.25;;;;;;;;5075706;27;45589;-65
2022/12/20 14:27:54;;;;;;;;;10.00;9.00;;;;;;;;5075379;28;47272;-65
2022/12/20 14:30:27;;;;;;;;;6.75;6.75;;;;;;;;5073975;27;45855;-67
2022/12/20 14:32:53;;;;;;;;;6.50;6.50;;;;;;;;5075482;27;46308;-66
2022/12/20 14:35:19;;;;;;;;;7.00;7.00;;;;;;;;5076073;27;45412;-65
2022/12/20 14:37:51;;;;;;;;;12.75;11.25;;;;;;;;5074349;27;46301;-66
2022/12/20 14:40:17;;;;;;;;;14.00;13.00;;;;;;;;5075734;27;45454;-67
2022/12/20 14:42:42;;;;;;;;;8.00;8.00;;;;;;;;5076013;27;45365;-66
2022/12/20 14:45:08;;;;;;;;;10.00;7.75;;;;;;;;5076394;28;45891;-66
2022/12/20 14:47:33;;;;;;;;;16.67;11.33;;;;;;;;5075499;27;46497;-68